sensor_id;sensor_type;location;lat;lon;timestamp;P1;durP1;ratioP1;P2;durP2;ratioP2
21036;SDS011;10677;50.942;4.028;2022-11-04T00:01:40;38.65;;;16.65;;
21036;SDS011;10677;50.942;4.028;2022-11-04T00:04:07;31.52;;;15.40;;
21036;SDS011;10677;50.942;4.028;2022-11-04T00:06:34;60.17;;;26.25;;
21036;SDS011;10677;50.942;4.028;2022-11-04T00:09:00;87.47;;;38.63;;
21036;SDS011;10677;50.942;4.028;2022-11-04T00:11:26;49.13;;;24.15;;
21036;SDS011;10677;50.942;4.028;2022-11-04T00:14:11;30.42;;;23.58;;
21036;SDS011;10677;50.942;4.028;2022-11-04T00:16:38;13.13;;;4.57;;
21036;SDS011;10677;50.942;4.028;2022-11-04T00:19:22;20.13;;;14.65;;
21036;SDS011;10677;50.942;4.028;2022-11-04T00:21:49;20.33;;;15.80;;
21036;SDS011;10677;50.942;4.028;2022-11-04T00:24:33;13.98;;;11.32;;
21036;SDS011;10677;50.942;4.028;2022-11-04T00:27:18;68.60;;;61.25;;
21036;SDS011;10677;50.942;4.028;2022-11-04T00:30:05;79.85;;;71.43;;
21036;SDS011;10677;50.942;4.028;2022-11-04T00:32:34;30.65;;;22.67;;
21036;SDS011;10677;50.942;4.028;2022-11-04T00:35:18;12.77;;;8.73;;
21036;SDS011;10677;50.942;4.028;2022-11-04T00:37:45;10.95;;;6.85;;
21036;SDS011;10677;50.942;4.028;2022-11-04T00:40:12;13.40;;;5.93;;
21036;SDS011;10677;50.942;4.028;2022-11-04T00:42:39;7.60;;;3.22;;
21036;SDS011;10677;50.942;4.028;2022-11-04T00:45:08;8.80;;;2.85;;
21036;SDS011;10677;50.942;4.028;2022-11-04T00:47:34;9.30;;;2.55;;
21036;SDS011;10677;50.942;4.028;2022-11-04T00:49:59;13.73;;;3.72;;
21036;SDS011;10677;50.942;4.028;2022-11-04T00:52:25;19.45;;;2.83;;
21036;SDS011;10677;50.942;4.028;2022-11-04T00:54:50;10.98;;;2.97;;
21036;SDS011;10677;50.942;4.028;2022-11-04T00:57:16;12.18;;;2.58;;
21036;SDS011;10677;50.942;4.028;2022-11-04T00:59:42;11.88;;;2.60;;
21036;SDS011;10677;50.942;4.028;2022-11-04T01:02:09;7.55;;;2.22;;
21036;SDS011;10677;50.942;4.028;2022-11-04T01:04:35;7.47;;;1.92;;
21036;SDS011;10677;50.942;4.028;2022-11-04T01:07:01;10.68;;;1.88;;
21036;SDS011;10677;50.942;4.028;2022-11-04T01:09:27;10.10;;;2.05;;
21036;SDS011;10677;50.942;4.028;2022-11-04T01:11:53;10.15;;;2.20;;
21036;SDS011;10677;50.942;4.028;2022-11-04T01:14:19;9.30;;;2.17;;
21036;SDS011;10677;50.942;4.028;2022-11-04T01:16:44;9.65;;;2.15;;
21036;SDS011;10677;50.942;4.028;2022-11-04T01:19:10;15.48;;;2.60;;
21036;SDS011;10677;50.942;4.028;2022-11-04T01:21:36;7.07;;;2.55;;
21036;SDS011;10677;50.942;4.028;2022-11-04T01:24:02;9.10;;;2.30;;
21036;SDS011;10677;50.942;4.028;2022-11-04T01:26:28;6.78;;;2.08;;
21036;SDS011;10677;50.942;4.028;2022-11-04T01:28:55;11.60;;;2.22;;
21036;SDS011;10677;50.942;4.028;2022-11-04T01:31:22;9.00;;;2.50;;
21036;SDS011;10677;50.942;4.028;2022-11-04T01:33:50;5.30;;;2.03;;
21036;SDS011;10677;50.942;4.028;2022-11-04T01:36:17;9.32;;;2.50;;
21036;SDS011;10677;50.942;4.028;2022-11-04T01:38:43;12.27;;;2.30;;
21036;SDS011;10677;50.942;4.028;2022-11-04T01:41:10;9.63;;;1.85;;
21036;SDS011;10677;50.942;4.028;2022-11-04T01:48:59;10.43;;;2.88;;
21036;SDS011;10677;50.942;4.028;2022-11-04T01:51:30;6.68;;;1.90;;
21036;SDS011;10677;50.942;4.028;2022-11-04T01:53:58;12.75;;;2.67;;
21036;SDS011;10677;50.942;4.028;2022-11-04T01:56:24;10.68;;;2.13;;
21036;SDS011;10677;50.942;4.028;2022-11-04T01:58:52;9.73;;;2.00;;
21036;SDS011;10677;50.942;4.028;2022-11-04T02:01:22;14.40;;;2.22;;
21036;SDS011;10677;50.942;4.028;2022-11-04T02:03:57;9.10;;;2.38;;
21036;SDS011;10677;50.942;4.028;2022-11-04T02:06:43;8.52;;;2.30;;
21036;SDS011;10677;50.942;4.028;2022-11-04T02:09:12;12.10;;;2.25;;
21036;SDS011;10677;50.942;4.028;2022-11-04T02:11:38;10.93;;;1.80;;
21036;SDS011;10677;50.942;4.028;2022-11-04T02:14:22;8.30;;;1.75;;
21036;SDS011;10677;50.942;4.028;2022-11-04T02:16:48;12.88;;;2.20;;
21036;SDS011;10677;50.942;4.028;2022-11-04T02:19:39;8.02;;;1.70;;
21036;SDS011;10677;50.942;4.028;2022-11-04T02:31:16;12.48;;;2.28;;
21036;SDS011;10677;50.942;4.028;2022-11-04T02:33:20;11.35;;;2.78;;
21036;SDS011;10677;50.942;4.028;2022-11-04T02:35:59;8.95;;;2.30;;
21036;SDS011;10677;50.942;4.028;2022-11-04T02:43:52;15.93;;;2.83;;
21036;SDS011;10677;50.942;4.028;2022-11-04T02:46:26;9.90;;;2.30;;
21036;SDS011;10677;50.942;4.028;2022-11-04T02:49:02;7.88;;;2.22;;
21036;SDS011;10677;50.942;4.028;2022-11-04T02:51:57;15.73;;;2.90;;
21036;SDS011;10677;50.942;4.028;2022-11-04T02:54:32;13.63;;;2.42;;
21036;SDS011;10677;50.942;4.028;2022-11-04T02:57:03;9.10;;;2.40;;
21036;SDS011;10677;50.942;4.028;2022-11-04T02:59:37;9.50;;;2.65;;
21036;SDS011;10677;50.942;4.028;2022-11-04T03:02:38;11.82;;;2.78;;
21036;SDS011;10677;50.942;4.028;2022-11-04T03:05:07;10.75;;;2.80;;
21036;SDS011;10677;50.942;4.028;2022-11-04T03:07:37;10.80;;;2.80;;
21036;SDS011;10677;50.942;4.028;2022-11-04T03:12:57;10.10;;;2.40;;
21036;SDS011;10677;50.942;4.028;2022-11-04T03:15:30;8.80;;;2.75;;
21036;SDS011;10677;50.942;4.028;2022-11-04T03:20:28;12.68;;;2.78;;
21036;SDS011;10677;50.942;4.028;2022-11-04T03:22:56;9.45;;;2.88;;
21036;SDS011;10677;50.942;4.028;2022-11-04T03:26:08;13.05;;;3.22;;
21036;SDS011;10677;50.942;4.028;2022-11-04T03:30:58;11.35;;;4.40;;
21036;SDS011;10677;50.942;4.028;2022-11-04T03:33:40;9.68;;;4.07;;
21036;SDS011;10677;50.942;4.028;2022-11-04T03:36:11;11.45;;;3.85;;
21036;SDS011;10677;50.942;4.028;2022-11-04T03:38:37;10.27;;;3.45;;
21036;SDS011;10677;50.942;4.028;2022-11-04T03:41:06;11.02;;;3.88;;
21036;SDS011;10677;50.942;4.028;2022-11-04T03:43:42;17.13;;;4.30;;
21036;SDS011;10677;50.942;4.028;2022-11-04T03:46:07;15.85;;;3.38;;
21036;SDS011;10677;50.942;4.028;2022-11-04T03:48:33;14.50;;;2.92;;
21036;SDS011;10677;50.942;4.028;2022-11-04T03:50:59;14.70;;;3.10;;
21036;SDS011;10677;50.942;4.028;2022-11-04T03:53:25;17.35;;;4.65;;
21036;SDS011;10677;50.942;4.028;2022-11-04T03:58:53;9.95;;;3.40;;
21036;SDS011;10677;50.942;4.028;2022-11-04T04:04:11;15.05;;;3.83;;
21036;SDS011;10677;50.942;4.028;2022-11-04T04:07:13;23.58;;;6.03;;
21036;SDS011;10677;50.942;4.028;2022-11-04T04:12:31;17.50;;;4.10;;
21036;SDS011;10677;50.942;4.028;2022-11-04T04:15:21;12.82;;;3.95;;
21036;SDS011;10677;50.942;4.028;2022-11-04T04:17:53;13.95;;;4.55;;
21036;SDS011;10677;50.942;4.028;2022-11-04T04:20:25;13.45;;;3.83;;
21036;SDS011;10677;50.942;4.028;2022-11-04T04:22:54;14.02;;;4.38;;
21036;SDS011;10677;50.942;4.028;2022-11-04T04:25:25;13.05;;;4.82;;
21036;SDS011;10677;50.942;4.028;2022-11-04T04:28:11;13.27;;;4.53;;
21036;SDS011;10677;50.942;4.028;2022-11-04T04:30:39;18.25;;;5.00;;
21036;SDS011;10677;50.942;4.028;2022-11-04T04:33:08;13.82;;;5.32;;
21036;SDS011;10677;50.942;4.028;2022-11-04T04:35:41;11.30;;;5.00;;
21036;SDS011;10677;50.942;4.028;2022-11-04T04:38:20;14.73;;;5.25;;
21036;SDS011;10677;50.942;4.028;2022-11-04T04:47:13;16.40;;;5.80;;
21036;SDS011;10677;50.942;4.028;2022-11-04T04:49:57;19.45;;;5.63;;
21036;SDS011;10677;50.942;4.028;2022-11-04T04:52:32;20.75;;;5.75;;
21036;SDS011;10677;50.942;4.028;2022-11-04T04:55:01;14.95;;;6.10;;
21036;SDS011;10677;50.942;4.028;2022-11-04T04:57:26;28.25;;;6.95;;
21036;SDS011;10677;50.942;4.028;2022-11-04T04:59:52;14.50;;;5.90;;
21036;SDS011;10677;50.942;4.028;2022-11-04T05:02:18;15.93;;;5.95;;
21036;SDS011;10677;50.942;4.028;2022-11-04T05:04:43;19.75;;;6.70;;
21036;SDS011;10677;50.942;4.028;2022-11-04T05:07:09;13.48;;;6.25;;
21036;SDS011;10677;50.942;4.028;2022-11-04T05:09:35;14.38;;;6.97;;
21036;SDS011;10677;50.942;4.028;2022-11-04T05:12:00;14.15;;;6.60;;
21036;SDS011;10677;50.942;4.028;2022-11-04T05:14:27;22.45;;;8.25;;
21036;SDS011;10677;50.942;4.028;2022-11-04T05:16:53;14.05;;;6.72;;
21036;SDS011;10677;50.942;4.028;2022-11-04T05:19:18;19.38;;;7.75;;
21036;SDS011;10677;50.942;4.028;2022-11-04T05:21:44;20.35;;;7.13;;
21036;SDS011;10677;50.942;4.028;2022-11-04T05:24:10;22.60;;;9.77;;
21036;SDS011;10677;50.942;4.028;2022-11-04T05:26:35;19.73;;;7.13;;
21036;SDS011;10677;50.942;4.028;2022-11-04T05:29:01;18.98;;;8.32;;
21036;SDS011;10677;50.942;4.028;2022-11-04T05:31:26;17.27;;;6.32;;
21036;SDS011;10677;50.942;4.028;2022-11-04T05:33:54;17.90;;;6.70;;
21036;SDS011;10677;50.942;4.028;2022-11-04T05:36:20;18.20;;;6.90;;
21036;SDS011;10677;50.942;4.028;2022-11-04T05:38:49;19.70;;;6.53;;
21036;SDS011;10677;50.942;4.028;2022-11-04T05:41:15;18.45;;;8.65;;
21036;SDS011;10677;50.942;4.028;2022-11-04T05:43:50;17.95;;;7.93;;
21036;SDS011;10677;50.942;4.028;2022-11-04T05:46:20;19.73;;;7.55;;
21036;SDS011;10677;50.942;4.028;2022-11-04T05:48:45;17.63;;;7.35;;
21036;SDS011;10677;50.942;4.028;2022-11-04T05:51:12;21.25;;;8.60;;
21036;SDS011;10677;50.942;4.028;2022-11-04T05:53:39;14.93;;;7.05;;
21036;SDS011;10677;50.942;4.028;2022-11-04T05:56:05;20.98;;;6.50;;
21036;SDS011;10677;50.942;4.028;2022-11-04T05:58:30;22.48;;;7.13;;
21036;SDS011;10677;50.942;4.028;2022-11-04T06:03:58;18.58;;;6.75;;
21036;SDS011;10677;50.942;4.028;2022-11-04T06:06:25;14.80;;;5.53;;
21036;SDS011;10677;50.942;4.028;2022-11-04T06:08:54;12.90;;;5.78;;
21036;SDS011;10677;50.942;4.028;2022-11-04T06:11:20;14.93;;;6.05;;
21036;SDS011;10677;50.942;4.028;2022-11-04T06:13:47;14.93;;;5.43;;
21036;SDS011;10677;50.942;4.028;2022-11-04T06:16:13;19.83;;;7.30;;
21036;SDS011;10677;50.942;4.028;2022-11-04T06:18:38;20.45;;;5.47;;
21036;SDS011;10677;50.942;4.028;2022-11-04T06:23:39;20.25;;;5.78;;
21036;SDS011;10677;50.942;4.028;2022-11-04T06:26:05;17.42;;;7.60;;
21036;SDS011;10677;50.942;4.028;2022-11-04T06:28:31;28.85;;;14.40;;
21036;SDS011;10677;50.942;4.028;2022-11-04T06:30:57;15.38;;;6.63;;
21036;SDS011;10677;50.942;4.028;2022-11-04T06:33:24;21.70;;;6.30;;
21036;SDS011;10677;50.942;4.028;2022-11-04T06:35:50;17.85;;;5.47;;
21036;SDS011;10677;50.942;4.028;2022-11-04T06:38:16;14.63;;;5.82;;
21036;SDS011;10677;50.942;4.028;2022-11-04T06:40:41;23.02;;;6.40;;
21036;SDS011;10677;50.942;4.028;2022-11-04T06:43:07;15.15;;;5.88;;
21036;SDS011;10677;50.942;4.028;2022-11-04T06:45:32;19.00;;;5.75;;
21036;SDS011;10677;50.942;4.028;2022-11-04T06:47:58;13.63;;;5.40;;
21036;SDS011;10677;50.942;4.028;2022-11-04T06:50:24;18.70;;;6.22;;
21036;SDS011;10677;50.942;4.028;2022-11-04T06:52:49;13.85;;;5.93;;
21036;SDS011;10677;50.942;4.028;2022-11-04T06:55:15;21.45;;;6.00;;
21036;SDS011;10677;50.942;4.028;2022-11-04T06:57:40;16.05;;;6.38;;
21036;SDS011;10677;50.942;4.028;2022-11-04T07:00:06;20.38;;;6.18;;
21036;SDS011;10677;50.942;4.028;2022-11-04T07:02:32;14.05;;;5.72;;
21036;SDS011;10677;50.942;4.028;2022-11-04T07:04:58;18.33;;;6.25;;
21036;SDS011;10677;50.942;4.028;2022-11-04T07:07:23;14.60;;;5.43;;
21036;SDS011;10677;50.942;4.028;2022-11-04T07:09:49;13.65;;;5.38;;
21036;SDS011;10677;50.942;4.028;2022-11-04T07:12:14;17.75;;;5.82;;
21036;SDS011;10677;50.942;4.028;2022-11-04T07:14:40;18.13;;;6.88;;
21036;SDS011;10677;50.942;4.028;2022-11-04T07:17:06;22.17;;;7.25;;
21036;SDS011;10677;50.942;4.028;2022-11-04T07:19:31;22.98;;;7.35;;
21036;SDS011;10677;50.942;4.028;2022-11-04T07:21:57;18.38;;;8.07;;
21036;SDS011;10677;50.942;4.028;2022-11-04T07:24:22;23.20;;;8.43;;
21036;SDS011;10677;50.942;4.028;2022-11-04T07:26:48;18.95;;;8.60;;
21036;SDS011;10677;50.942;4.028;2022-11-04T07:29:14;24.25;;;11.32;;
21036;SDS011;10677;50.942;4.028;2022-11-04T07:31:39;18.30;;;9.30;;
21036;SDS011;10677;50.942;4.028;2022-11-04T07:34:05;23.00;;;9.25;;
21036;SDS011;10677;50.942;4.028;2022-11-04T07:36:30;20.55;;;7.97;;
21036;SDS011;10677;50.942;4.028;2022-11-04T07:38:56;16.17;;;7.63;;
21036;SDS011;10677;50.942;4.028;2022-11-04T07:41:22;26.65;;;7.72;;
21036;SDS011;10677;50.942;4.028;2022-11-04T07:43:50;17.42;;;7.60;;
21036;SDS011;10677;50.942;4.028;2022-11-04T07:46:17;18.58;;;7.07;;
21036;SDS011;10677;50.942;4.028;2022-11-04T07:48:43;19.60;;;7.45;;
21036;SDS011;10677;50.942;4.028;2022-11-04T07:51:10;19.63;;;7.32;;
21036;SDS011;10677;50.942;4.028;2022-11-04T07:53:38;16.65;;;7.00;;
21036;SDS011;10677;50.942;4.028;2022-11-04T07:56:05;14.73;;;6.90;;
21036;SDS011;10677;50.942;4.028;2022-11-04T07:58:32;19.85;;;7.28;;
21036;SDS011;10677;50.942;4.028;2022-11-04T08:01:02;28.58;;;7.57;;
21036;SDS011;10677;50.942;4.028;2022-11-04T08:03:30;16.13;;;6.47;;
21036;SDS011;10677;50.942;4.028;2022-11-04T08:05:59;13.73;;;6.13;;
21036;SDS011;10677;50.942;4.028;2022-11-04T08:08:26;19.80;;;6.43;;
21036;SDS011;10677;50.942;4.028;2022-11-04T08:10:59;15.98;;;5.97;;
21036;SDS011;10677;50.942;4.028;2022-11-04T08:13:35;13.00;;;5.93;;
21036;SDS011;10677;50.942;4.028;2022-11-04T08:16:02;16.85;;;6.70;;
21036;SDS011;10677;50.942;4.028;2022-11-04T08:18:30;15.43;;;5.47;;
21036;SDS011;10677;50.942;4.028;2022-11-04T08:20:57;18.33;;;5.85;;
21036;SDS011;10677;50.942;4.028;2022-11-04T08:23:23;18.65;;;5.90;;
21036;SDS011;10677;50.942;4.028;2022-11-04T08:25:49;19.70;;;6.53;;
21036;SDS011;10677;50.942;4.028;2022-11-04T08:28:14;20.73;;;6.35;;
21036;SDS011;10677;50.942;4.028;2022-11-04T08:30:56;19.00;;;6.10;;
21036;SDS011;10677;50.942;4.028;2022-11-04T08:33:24;13.88;;;5.75;;
21036;SDS011;10677;50.942;4.028;2022-11-04T08:35:51;16.40;;;5.70;;
21036;SDS011;10677;50.942;4.028;2022-11-04T08:38:18;14.65;;;5.95;;
21036;SDS011;10677;50.942;4.028;2022-11-04T08:40:44;19.92;;;7.03;;
21036;SDS011;10677;50.942;4.028;2022-11-04T08:43:10;15.95;;;5.68;;
21036;SDS011;10677;50.942;4.028;2022-11-04T08:45:39;20.42;;;5.55;;
21036;SDS011;10677;50.942;4.028;2022-11-04T08:48:06;14.93;;;5.05;;
21036;SDS011;10677;50.942;4.028;2022-11-04T08:50:31;15.73;;;4.72;;
21036;SDS011;10677;50.942;4.028;2022-11-04T08:52:57;14.18;;;4.40;;
21036;SDS011;10677;50.942;4.028;2022-11-04T08:55:23;12.60;;;4.40;;
21036;SDS011;10677;50.942;4.028;2022-11-04T08:57:48;14.80;;;4.55;;
21036;SDS011;10677;50.942;4.028;2022-11-04T09:00:15;17.85;;;4.65;;
21036;SDS011;10677;50.942;4.028;2022-11-04T09:02:41;11.43;;;4.22;;
21036;SDS011;10677;50.942;4.028;2022-11-04T09:05:06;12.52;;;4.22;;
21036;SDS011;10677;50.942;4.028;2022-11-04T09:07:33;13.40;;;3.13;;
21036;SDS011;10677;50.942;4.028;2022-11-04T09:10:01;16.05;;;4.00;;
21036;SDS011;10677;50.942;4.028;2022-11-04T09:12:27;12.35;;;3.38;;
21036;SDS011;10677;50.942;4.028;2022-11-04T09:14:53;11.90;;;3.38;;
21036;SDS011;10677;50.942;4.028;2022-11-04T09:17:18;16.00;;;4.30;;
21036;SDS011;10677;50.942;4.028;2022-11-04T09:19:44;10.77;;;3.13;;
21036;SDS011;10677;50.942;4.028;2022-11-04T09:22:09;15.75;;;3.78;;
21036;SDS011;10677;50.942;4.028;2022-11-04T09:24:35;14.00;;;3.35;;
21036;SDS011;10677;50.942;4.028;2022-11-04T09:27:01;17.08;;;3.65;;
21036;SDS011;10677;50.942;4.028;2022-11-04T09:29:26;12.25;;;3.83;;
21036;SDS011;10677;50.942;4.028;2022-11-04T09:31:54;9.48;;;3.30;;
21036;SDS011;10677;50.942;4.028;2022-11-04T09:34:20;12.23;;;3.83;;
21036;SDS011;10677;50.942;4.028;2022-11-04T09:36:46;14.02;;;3.83;;
21036;SDS011;10677;50.942;4.028;2022-11-04T09:39:11;10.95;;;3.53;;
21036;SDS011;10677;50.942;4.028;2022-11-04T09:44:47;12.98;;;4.00;;
21036;SDS011;10677;50.942;4.028;2022-11-04T09:47:32;13.55;;;3.80;;
21036;SDS011;10677;50.942;4.028;2022-11-04T09:49:58;10.35;;;3.65;;
21036;SDS011;10677;50.942;4.028;2022-11-04T09:52:33;12.38;;;3.65;;
21036;SDS011;10677;50.942;4.028;2022-11-04T09:57:52;9.45;;;4.45;;
21036;SDS011;10677;50.942;4.028;2022-11-04T10:00:20;12.25;;;3.65;;
21036;SDS011;10677;50.942;4.028;2022-11-04T10:08:02;13.57;;;4.68;;
21036;SDS011;10677;50.942;4.028;2022-11-04T10:11:05;18.15;;;5.45;;
21036;SDS011;10677;50.942;4.028;2022-11-04T10:19:01;17.35;;;6.40;;
21036;SDS011;10677;50.942;4.028;2022-11-04T10:21:31;15.77;;;7.07;;
21036;SDS011;10677;50.942;4.028;2022-11-04T10:24:17;16.90;;;7.90;;
21036;SDS011;10677;50.942;4.028;2022-11-04T10:26:49;17.55;;;9.43;;
21036;SDS011;10677;50.942;4.028;2022-11-04T10:32:10;17.25;;;8.88;;
21036;SDS011;10677;50.942;4.028;2022-11-04T10:34:53;19.75;;;10.02;;
21036;SDS011;10677;50.942;4.028;2022-11-04T10:37:23;19.70;;;9.63;;
21036;SDS011;10677;50.942;4.028;2022-11-04T10:39:50;21.25;;;10.13;;
21036;SDS011;10677;50.942;4.028;2022-11-04T10:42:25;18.08;;;11.38;;
21036;SDS011;10677;50.942;4.028;2022-11-04T10:44:50;19.00;;;10.43;;
21036;SDS011;10677;50.942;4.028;2022-11-04T10:50:11;18.65;;;10.80;;
21036;SDS011;10677;50.942;4.028;2022-11-04T10:52:43;17.27;;;9.65;;
21036;SDS011;10677;50.942;4.028;2022-11-04T10:55:10;18.05;;;10.63;;
21036;SDS011;10677;50.942;4.028;2022-11-04T10:57:42;16.35;;;9.57;;
21036;SDS011;10677;50.942;4.028;2022-11-04T11:00:07;16.45;;;10.80;;
21036;SDS011;10677;50.942;4.028;2022-11-04T11:07:43;15.15;;;9.80;;
21036;SDS011;10677;50.942;4.028;2022-11-04T11:10:17;18.27;;;9.65;;
21036;SDS011;10677;50.942;4.028;2022-11-04T11:12:58;16.80;;;9.05;;
21036;SDS011;10677;50.942;4.028;2022-11-04T11:18:16;15.68;;;9.00;;
21036;SDS011;10677;50.942;4.028;2022-11-04T11:20:49;15.15;;;9.55;;
21036;SDS011;10677;50.942;4.028;2022-11-04T11:23:32;17.10;;;9.23;;
21036;SDS011;10677;50.942;4.028;2022-11-04T11:25:58;14.38;;;9.05;;
21036;SDS011;10677;50.942;4.028;2022-11-04T11:28:25;15.63;;;8.80;;
21036;SDS011;10677;50.942;4.028;2022-11-04T11:31:01;13.38;;;8.40;;
21036;SDS011;10677;50.942;4.028;2022-11-04T11:33:30;12.57;;;7.63;;
21036;SDS011;10677;50.942;4.028;2022-11-04T11:41:47;19.58;;;8.30;;
21036;SDS011;10677;50.942;4.028;2022-11-04T11:44:17;14.25;;;8.50;;
21036;SDS011;10677;50.942;4.028;2022-11-04T11:47:41;14.63;;;8.77;;
21036;SDS011;10677;50.942;4.028;2022-11-04T11:52:44;13.55;;;8.10;;
21036;SDS011;10677;50.942;4.028;2022-11-04T12:00:18;15.20;;;9.48;;
21036;SDS011;10677;50.942;4.028;2022-11-04T12:02:49;16.73;;;9.52;;
21036;SDS011;10677;50.942;4.028;2022-11-04T12:05:16;19.83;;;9.35;;
21036;SDS011;10677;50.942;4.028;2022-11-04T12:07:53;16.77;;;9.35;;
21036;SDS011;10677;50.942;4.028;2022-11-04T12:10:26;12.20;;;8.50;;
21036;SDS011;10677;50.942;4.028;2022-11-04T12:18:33;15.25;;;8.23;;
21036;SDS011;10677;50.942;4.028;2022-11-04T12:21:31;16.52;;;8.32;;
21036;SDS011;10677;50.942;4.028;2022-11-04T12:24:14;16.00;;;7.57;;
21036;SDS011;10677;50.942;4.028;2022-11-04T12:35:19;16.15;;;8.07;;
21036;SDS011;10677;50.942;4.028;2022-11-04T12:46:20;16.70;;;9.45;;
21036;SDS011;10677;50.942;4.028;2022-11-04T12:52:03;10.63;;;6.03;;
21036;SDS011;10677;50.942;4.028;2022-11-04T12:57:14;8.45;;;5.10;;
21036;SDS011;10677;50.942;4.028;2022-11-04T13:00:04;12.60;;;5.50;;
21036;SDS011;10677;50.942;4.028;2022-11-04T13:02:39;9.82;;;4.30;;
21036;SDS011;10677;50.942;4.028;2022-11-04T13:08:13;11.85;;;5.20;;
21036;SDS011;10677;50.942;4.028;2022-11-04T13:10:52;11.57;;;5.85;;
21036;SDS011;10677;50.942;4.028;2022-11-04T13:13:31;10.75;;;6.35;;
21036;SDS011;10677;50.942;4.028;2022-11-04T13:16:02;12.20;;;6.90;;
21036;SDS011;10677;50.942;4.028;2022-11-04T13:18:34;13.13;;;7.65;;
21036;SDS011;10677;50.942;4.028;2022-11-04T13:21:05;11.95;;;7.22;;
21036;SDS011;10677;50.942;4.028;2022-11-04T13:23:39;15.20;;;7.88;;
21036;SDS011;10677;50.942;4.028;2022-11-04T13:26:13;12.65;;;7.55;;
21036;SDS011;10677;50.942;4.028;2022-11-04T13:28:39;11.20;;;7.10;;
21036;SDS011;10677;50.942;4.028;2022-11-04T13:31:18;14.80;;;6.88;;
21036;SDS011;10677;50.942;4.028;2022-11-04T13:39:34;8.98;;;5.10;;
21036;SDS011;10677;50.942;4.028;2022-11-04T13:42:19;8.65;;;4.45;;
21036;SDS011;10677;50.942;4.028;2022-11-04T13:45:12;4.63;;;1.20;;
21036;SDS011;10677;50.942;4.028;2022-11-04T13:47:48;2.40;;;0.52;;
21036;SDS011;10677;50.942;4.028;2022-11-04T13:50:27;2.42;;;0.60;;
21036;SDS011;10677;50.942;4.028;2022-11-04T13:52:57;0.93;;;0.40;;
21036;SDS011;10677;50.942;4.028;2022-11-04T13:55:23;2.45;;;0.40;;
21036;SDS011;10677;50.942;4.028;2022-11-04T13:58:02;2.55;;;0.43;;
21036;SDS011;10677;50.942;4.028;2022-11-04T14:00:34;1.70;;;0.40;;
21036;SDS011;10677;50.942;4.028;2022-11-04T14:06:07;4.35;;;0.70;;
21036;SDS011;10677;50.942;4.028;2022-11-04T14:08:32;2.95;;;0.77;;
21036;SDS011;10677;50.942;4.028;2022-11-04T14:11:00;6.60;;;1.17;;
21036;SDS011;10677;50.942;4.028;2022-11-04T14:18:48;1.65;;;0.70;;
21036;SDS011;10677;50.942;4.028;2022-11-04T14:21:19;2.10;;;0.73;;
21036;SDS011;10677;50.942;4.028;2022-11-04T14:23:53;7.00;;;0.95;;
21036;SDS011;10677;50.942;4.028;2022-11-04T14:26:28;4.95;;;1.00;;
21036;SDS011;10677;50.942;4.028;2022-11-04T14:29:20;5.95;;;2.20;;
21036;SDS011;10677;50.942;4.028;2022-11-04T14:31:49;4.63;;;1.10;;
21036;SDS011;10677;50.942;4.028;2022-11-04T14:34:27;4.25;;;1.02;;
21036;SDS011;10677;50.942;4.028;2022-11-04T14:37:00;8.23;;;1.25;;
21036;SDS011;10677;50.942;4.028;2022-11-04T14:39:39;2.90;;;1.23;;
21036;SDS011;10677;50.942;4.028;2022-11-04T14:42:07;3.65;;;1.10;;
21036;SDS011;10677;50.942;4.028;2022-11-04T14:44:40;3.83;;;1.15;;
21036;SDS011;10677;50.942;4.028;2022-11-04T14:54:57;4.53;;;1.23;;
21036;SDS011;10677;50.942;4.028;2022-11-04T14:57:27;5.97;;;1.52;;
21036;SDS011;10677;50.942;4.028;2022-11-04T14:59:54;3.72;;;1.23;;
21036;SDS011;10677;50.942;4.028;2022-11-04T15:02:24;7.30;;;1.60;;
21036;SDS011;10677;50.942;4.028;2022-11-04T15:04:59;3.17;;;1.02;;
21036;SDS011;10677;50.942;4.028;2022-11-04T15:10:13;4.82;;;1.25;;
21036;SDS011;10677;50.942;4.028;2022-11-04T15:12:44;6.90;;;1.30;;
21036;SDS011;10677;50.942;4.028;2022-11-04T15:15:27;3.15;;;1.00;;
21036;SDS011;10677;50.942;4.028;2022-11-04T15:18:02;5.38;;;1.45;;
21036;SDS011;10677;50.942;4.028;2022-11-04T15:20:31;5.10;;;1.20;;
21036;SDS011;10677;50.942;4.028;2022-11-04T15:23:00;5.15;;;1.50;;
21036;SDS011;10677;50.942;4.028;2022-11-04T15:25:27;6.45;;;1.02;;
21036;SDS011;10677;50.942;4.028;2022-11-04T15:27:54;5.35;;;1.02;;
21036;SDS011;10677;50.942;4.028;2022-11-04T15:30:22;5.93;;;0.80;;
21036;SDS011;10677;50.942;4.028;2022-11-04T15:32:54;3.97;;;1.30;;
21036;SDS011;10677;50.942;4.028;2022-11-04T15:35:22;3.40;;;1.02;;
21036;SDS011;10677;50.942;4.028;2022-11-04T15:37:49;5.13;;;1.27;;
21036;SDS011;10677;50.942;4.028;2022-11-04T15:40:16;4.85;;;1.40;;
21036;SDS011;10677;50.942;4.028;2022-11-04T15:42:42;2.75;;;1.10;;
21036;SDS011;10677;50.942;4.028;2022-11-04T15:47:46;3.40;;;1.00;;
21036;SDS011;10677;50.942;4.028;2022-11-04T15:50:23;6.78;;;1.30;;
21036;SDS011;10677;50.942;4.028;2022-11-04T15:52:51;5.45;;;1.30;;
21036;SDS011;10677;50.942;4.028;2022-11-04T15:55:19;4.63;;;1.50;;
21036;SDS011;10677;50.942;4.028;2022-11-04T15:57:47;4.90;;;1.48;;
21036;SDS011;10677;50.942;4.028;2022-11-04T16:02:49;5.93;;;1.50;;
21036;SDS011;10677;50.942;4.028;2022-11-04T16:08:21;4.45;;;1.52;;
21036;SDS011;10677;50.942;4.028;2022-11-04T16:11:06;5.40;;;1.70;;
21036;SDS011;10677;50.942;4.028;2022-11-04T16:13:37;6.75;;;1.80;;
21036;SDS011;10677;50.942;4.028;2022-11-04T16:16:17;5.40;;;1.80;;
21036;SDS011;10677;50.942;4.028;2022-11-04T16:18:50;2.95;;;1.35;;
21036;SDS011;10677;50.942;4.028;2022-11-04T16:21:31;6.30;;;1.65;;
21036;SDS011;10677;50.942;4.028;2022-11-04T16:24:00;3.33;;;1.27;;
21036;SDS011;10677;50.942;4.028;2022-11-04T16:26:30;3.45;;;1.25;;
21036;SDS011;10677;50.942;4.028;2022-11-04T16:29:04;2.67;;;1.17;;
21036;SDS011;10677;50.942;4.028;2022-11-04T16:31:39;3.13;;;0.98;;
21036;SDS011;10677;50.942;4.028;2022-11-04T16:34:08;4.32;;;1.20;;
21036;SDS011;10677;50.942;4.028;2022-11-04T16:36:38;5.43;;;1.73;;
21036;SDS011;10677;50.942;4.028;2022-11-04T16:39:04;5.10;;;1.80;;
21036;SDS011;10677;50.942;4.028;2022-11-04T16:41:39;5.78;;;1.80;;
21036;SDS011;10677;50.942;4.028;2022-11-04T16:44:08;4.38;;;1.92;;
21036;SDS011;10677;50.942;4.028;2022-11-04T16:46:42;7.18;;;2.17;;
21036;SDS011;10677;50.942;4.028;2022-11-04T16:49:09;6.32;;;2.42;;
21036;SDS011;10677;50.942;4.028;2022-11-04T16:51:39;5.55;;;2.72;;
21036;SDS011;10677;50.942;4.028;2022-11-04T16:54:05;5.22;;;1.70;;
21036;SDS011;10677;50.942;4.028;2022-11-04T16:56:31;5.75;;;2.22;;
21036;SDS011;10677;50.942;4.028;2022-11-04T16:58:57;8.20;;;2.72;;
21036;SDS011;10677;50.942;4.028;2022-11-04T17:01:23;5.85;;;2.45;;
21036;SDS011;10677;50.942;4.028;2022-11-04T17:03:49;5.82;;;2.53;;
21036;SDS011;10677;50.942;4.028;2022-11-04T17:06:14;5.88;;;2.90;;
21036;SDS011;10677;50.942;4.028;2022-11-04T17:08:41;7.60;;;3.25;;
21036;SDS011;10677;50.942;4.028;2022-11-04T17:11:08;8.52;;;4.07;;
21036;SDS011;10677;50.942;4.028;2022-11-04T17:13:34;9.43;;;5.10;;
21036;SDS011;10677;50.942;4.028;2022-11-04T17:15:59;13.13;;;7.88;;
21036;SDS011;10677;50.942;4.028;2022-11-04T17:18:28;11.57;;;6.00;;
21036;SDS011;10677;50.942;4.028;2022-11-04T17:20:55;10.27;;;5.07;;
21036;SDS011;10677;50.942;4.028;2022-11-04T17:23:21;8.55;;;4.50;;
21036;SDS011;10677;50.942;4.028;2022-11-04T17:25:47;11.32;;;4.82;;
21036;SDS011;10677;50.942;4.028;2022-11-04T17:28:13;10.32;;;5.15;;
21036;SDS011;10677;50.942;4.028;2022-11-04T17:30:40;9.90;;;5.05;;
21036;SDS011;10677;50.942;4.028;2022-11-04T17:33:09;11.05;;;4.85;;